Time;durP1;ratioP1;P1;durP2;ratioP2;P2;SDS_P1;SDS_P2;PMS_P1;PMS_P2;Temp;Humidity;BMP_temperature;BMP_pressure;BME280_temperature;BME280_humidity;BME280_pressure;Samples;Min_cycle;Max_cycle;Signal;HPM_P1;HPM_P2
2021/07/14 00:02:17;;;;;;;;;;;20.20;99.90;;;;;;5149178;27;19930;-82
2021/07/14 00:04:43;;;;;;;;;;;20.10;99.90;;;;;;5130649;27;20405;-83
2021/07/14 00:07:08;;;;;;;;;;;20.20;99.90;;;;;;5130379;27;19908;-83
2021/07/14 00:09:34;;;;;;;;;;;20.20;99.90;;;;;;5148833;27;20022;-83
2021/07/14 00:12:03;;;;;;;;;;;20.20;99.90;;;;;;5130326;27;19911;-83
2021/07/14 00:14:45;;;;;;;;;;;20.20;99.90;;;;;;5130529;27;19907;-83
2021/07/14 00:22:28;;;;;;;;;;;20.10;99.90;;;;;;5135405;27;20131;-83
2021/07/14 00:24:53;;;;;;;;;;;20.10;99.90;;;;;;5135131;27;20110;-83
2021/07/14 00:27:19;;;;;;;;;;;20.20;99.90;;;;;;5134972;27;19998;-83
2021/07/14 00:29:51;;;;;;;;;;;20.10;99.90;;;;;;5115887;27;19949;-83
2021/07/14 00:32:17;;;;;;;;;;;20.10;99.90;;;;;;5116074;27;19923;-83
2021/07/14 00:34:43;;;;;;;;;;;20.10;99.90;;;;;;5116398;27;20228;-83
2021/07/14 00:37:08;;;;;;;;;;;20.10;99.90;;;;;;5115964;27;20336;-83
2021/07/14 00:39:34;;;;;;;;;;;20.10;99.90;;;;;;5134284;27;19918;-83
2021/07/14 00:42:00;;;;;;;;;;;20.10;99.90;;;;;;5134376;27;19911;-83
2021/07/14 00:44:25;;;;;;;;;;;20.10;99.90;;;;;;5134790;27;19911;-83
2021/07/14 00:46:52;;;;;;;;;;;20.10;99.90;;;;;;5134506;27;19911;-83
2021/07/14 00:49:18;;;;;;;;;;;20.10;99.90;;;;;;5134050;27;20367;-83
2021/07/14 00:51:43;;;;;;;;;;;20.10;99.90;;;;;;5115776;27;19915;-83
2021/07/14 00:54:09;;;;;;;;;;;20.10;99.90;;;;;;5115831;27;19911;-83
2021/07/14 00:56:35;;;;;;;;;;;20.20;99.90;;;;;;5115886;27;20288;-83
2021/07/14 00:59:00;;;;;;;;;;;20.10;99.90;;;;;;5115467;27;20328;-83
2021/07/14 01:01:26;;;;;;;;;;;20.10;99.90;;;;;;5134163;27;19912;-83
2021/07/14 01:03:52;;;;;;;;;;;20.10;99.90;;;;;;5134163;27;19908;-83
2021/07/14 01:06:33;;;;;;;;;;;20.10;99.90;;;;;;5115750;27;19918;-83
2021/07/14 01:09:00;;;;;;;;;;;20.10;99.90;;;;;;5114995;27;19907;-83
2021/07/14 01:11:29;;;;;;;;;;;20.10;99.90;;;;;;5134081;27;20332;-83
2021/07/14 01:14:00;;;;;;;;;;;20.10;99.90;;;;;;5115528;27;19908;-83
2021/07/14 01:16:29;;;;;;;;;;;20.10;99.90;;;;;;5115168;27;20352;-83
2021/07/14 01:19:07;;;;;;;;;;;20.00;99.90;;;;;;5114699;27;20368;-83
2021/07/14 01:21:40;;;;;;;;;;;20.00;99.90;;;;;;5114745;27;19908;-83
2021/07/14 01:24:12;;;;;;;;;;;20.00;99.90;;;;;;5114672;27;20005;-83
2021/07/14 01:26:56;;;;;;;;;;;20.00;99.90;;;;;;5115171;27;19907;-83
2021/07/14 01:29:22;;;;;;;;;;;20.00;99.90;;;;;;5113874;27;19926;-83
2021/07/14 01:31:49;;;;;;;;;;;20.00;99.90;;;;;;5115088;27;19911;-83
2021/07/14 01:34:15;;;;;;;;;;;20.00;99.90;;;;;;5115528;27;20279;-83
2021/07/14 01:36:43;;;;;;;;;;;20.00;99.90;;;;;;5133355;27;19911;-83
2021/07/14 01:39:08;;;;;;;;;;;20.00;99.90;;;;;;5114615;27;20019;-83
2021/07/14 01:41:37;;;;;;;;;;;20.00;99.90;;;;;;5115008;27;19962;-84
2021/07/14 01:44:03;;;;;;;;;;;20.00;99.90;;;;;;5114974;27;19907;-83
2021/07/14 01:46:30;;;;;;;;;;;20.00;99.90;;;;;;5133482;27;19908;-83
2021/07/14 01:48:57;;;;;;;;;;;20.00;99.90;;;;;;5114233;27;20014;-82
2021/07/14 01:51:23;;;;;;;;;;;20.00;99.90;;;;;;5114881;27;20019;-83
2021/07/14 01:53:49;;;;;;;;;;;20.00;99.90;;;;;;5114659;27;20264;-83
2021/07/14 01:56:14;;;;;;;;;;;20.00;99.90;;;;;;5133216;27;19914;-83
2021/07/14 01:58:42;;;;;;;;;;;20.00;99.90;;;;;;5114636;27;19934;-83
2021/07/14 02:01:08;;;;;;;;;;;20.00;99.90;;;;;;5132608;27;19914;-83
2021/07/14 02:06:00;;;;;;;;;;;19.90;99.90;;;;;;5132822;27;20368;-83
2021/07/14 02:08:26;;;;;;;;;;;20.00;99.90;;;;;;5114059;27;19907;-83
2021/07/14 02:10:53;;;;;;;;;;;20.00;99.90;;;;;;5113905;27;20006;-83
2021/07/14 02:13:19;;;;;;;;;;;20.00;99.90;;;;;;5114099;27;20278;-83
2021/07/14 02:15:49;;;;;;;;;;;20.00;99.90;;;;;;5114315;27;19953;-83
2021/07/14 02:18:15;;;;;;;;;;;20.00;99.90;;;;;;5114063;27;20382;-83
2021/07/14 02:20:41;;;;;;;;;;;20.00;99.90;;;;;;5113723;27;19911;-83
2021/07/14 02:23:07;;;;;;;;;;;19.90;99.90;;;;;;5113930;27;19915;-83
2021/07/14 02:25:33;;;;;;;;;;;19.90;99.90;;;;;;5113984;27;19911;-83
2021/07/14 02:27:59;;;;;;;;;;;19.90;99.90;;;;;;5114107;27;19918;-83
2021/07/14 02:30:24;;;;;;;;;;;19.90;99.90;;;;;;5113729;27;19915;-83
2021/07/14 02:33:01;;;;;;;;;;;19.90;99.90;;;;;;5113989;27;20002;-83
2021/07/14 02:35:28;;;;;;;;;;;19.90;99.90;;;;;;5132372;27;19916;-83
2021/07/14 02:38:00;;;;;;;;;;;19.90;99.90;;;;;;5114478;27;20380;-83
2021/07/14 02:40:39;;;;;;;;;;;19.90;99.90;;;;;;5131296;27;19908;-83
2021/07/14 02:43:05;;;;;;;;;;;19.90;99.90;;;;;;5112679;27;19953;-83
2021/07/14 02:45:33;;;;;;;;;;;19.90;99.90;;;;;;5113627;27;20290;-83
2021/07/14 02:48:00;;;;;;;;;;;19.90;99.90;;;;;;5132336;27;19907;-84
2021/07/14 02:50:27;;;;;;;;;;;19.90;99.90;;;;;;5113587;27;19943;-83
2021/07/14 02:52:55;;;;;;;;;;;19.90;99.90;;;;;;5113672;27;19953;-83
2021/07/14 02:55:21;;;;;;;;;;;19.90;99.90;;;;;;5113760;27;19911;-83
2021/07/14 02:57:50;;;;;;;;;;;19.80;99.90;;;;;;5113913;28;19911;-83
2021/07/14 03:00:16;;;;;;;;;;;19.90;99.90;;;;;;5131842;27;20417;-83
2021/07/14 03:02:42;;;;;;;;;;;19.90;99.90;;;;;;5113773;28;19907;-84
2021/07/14 03:05:08;;;;;;;;;;;19.80;99.90;;;;;;5132177;28;20010;-83
2021/07/14 03:07:35;;;;;;;;;;;19.80;99.90;;;;;;5132111;28;20370;-83
2021/07/14 03:10:01;;;;;;;;;;;19.80;99.90;;;;;;5113490;28;19911;-83
2021/07/14 03:12:27;;;;;;;;;;;19.80;99.90;;;;;;5132208;28;19907;-85
2021/07/14 03:14:55;;;;;;;;;;;19.80;99.90;;;;;;5113898;28;19915;-85
2021/07/14 03:17:21;;;;;;;;;;;19.80;99.90;;;;;;5132317;28;20433;-83
2021/07/14 03:19:47;;;;;;;;;;;19.80;99.90;;;;;;5113812;28;19911;-82
2021/07/14 03:22:13;;;;;;;;;;;19.80;99.90;;;;;;5114170;28;19915;-83
2021/07/14 03:24:40;;;;;;;;;;;19.70;99.90;;;;;;5115927;28;19918;-84
2021/07/14 03:27:07;;;;;;;;;;;19.80;99.90;;;;;;5115689;28;20348;-83
2021/07/14 03:29:34;;;;;;;;;;;19.80;99.90;;;;;;5114956;28;19943;-84
2021/07/14 03:32:03;;;;;;;;;;;19.80;99.90;;;;;;5114536;28;20008;-84
2021/07/14 03:34:30;;;;;;;;;;;19.80;99.90;;;;;;5132789;28;19908;-84
2021/07/14 03:36:56;;;;;;;;;;;19.80;99.90;;;;;;5113924;28;19915;-84
2021/07/14 03:39:22;;;;;;;;;;;19.80;99.90;;;;;;5113758;28;20268;-85
2021/07/14 03:41:48;;;;;;;;;;;19.80;99.90;;;;;;5114410;28;20428;-83
2021/07/14 03:44:15;;;;;;;;;;;19.80;99.90;;;;;;5114630;28;19918;-83
2021/07/14 03:46:41;;;;;;;;;;;19.70;99.90;;;;;;5113876;28;19918;-83
2021/07/14 03:49:07;;;;;;;;;;;19.70;99.90;;;;;;5113878;28;19998;-83
2021/07/14 03:51:33;;;;;;;;;;;19.70;99.90;;;;;;5134289;27;19919;-83
2021/07/14 03:53:59;;;;;;;;;;;19.70;99.90;;;;;;5118232;27;19918;-83
2021/07/14 03:56:25;;;;;;;;;;;19.70;99.90;;;;;;5118291;27;19908;-83
2021/07/14 03:58:51;;;;;;;;;;;19.70;99.90;;;;;;5117896;27;19994;-83
2021/07/14 04:01:18;;;;;;;;;;;19.70;99.90;;;;;;5118182;27;19908;-83
2021/07/14 04:03:43;;;;;;;;;;;19.70;99.90;;;;;;5118538;27;19907;-83
2021/07/14 04:06:10;;;;;;;;;;;19.70;99.90;;;;;;5118418;27;19918;-83
2021/07/14 04:08:44;;;;;;;;;;;19.70;99.90;;;;;;5136652;27;20363;-83
2021/07/14 04:11:10;;;;;;;;;;;19.70;99.90;;;;;;5117326;27;19936;-83
2021/07/14 04:13:36;;;;;;;;;;;19.70;99.90;;;;;;5136305;27;19908;-82
2021/07/14 04:16:01;;;;;;;;;;;19.70;99.90;;;;;;5118222;27;20387;-83
2021/07/14 04:18:27;;;;;;;;;;;19.70;99.90;;;;;;5117463;27;19951;-83
2021/07/14 04:20:52;;;;;;;;;;;19.70;99.90;;;;;;5117603;27;20018;-83
2021/07/14 04:23:18;;;;;;;;;;;19.70;99.90;;;;;;5117358;27;20022;-84
2021/07/14 04:25:43;;;;;;;;;;;19.70;99.90;;;;;;5119910;27;19975;-84
2021/07/14 04:28:09;;;;;;;;;;;19.70;99.90;;;;;;5120245;27;19919;-83
2021/07/14 04:30:35;;;;;;;;;;;19.70;99.90;;;;;;5119299;27;19930;-83
2021/07/14 04:33:00;;;;;;;;;;;19.70;99.90;;;;;;5119832;27;19983;-84
2021/07/14 04:35:26;;;;;;;;;;;19.70;99.90;;;;;;5119713;27;19911;-84
2021/07/14 04:37:52;;;;;;;;;;;19.70;99.90;;;;;;5138079;27;19956;-83
2021/07/14 04:40:17;;;;;;;;;;;19.70;99.90;;;;;;5119127;27;19914;-84
2021/07/14 04:42:43;;;;;;;;;;;19.70;99.90;;;;;;5119699;27;20283;-83
2021/07/14 04:45:09;;;;;;;;;;;19.70;99.90;;;;;;5119946;27;20011;-83
2021/07/14 04:47:34;;;;;;;;;;;19.70;99.90;;;;;;5120070;27;19908;-84
2021/07/14 04:50:00;;;;;;;;;;;19.70;99.90;;;;;;5118765;27;19923;-84
2021/07/14 04:52:25;;;;;;;;;;;19.80;99.90;;;;;;5119547;27;19915;-84
2021/07/14 04:54:51;;;;;;;;;;;19.80;99.90;;;;;;5119048;27;19912;-85
2021/07/14 04:57:16;;;;;;;;;;;19.80;99.90;;;;;;5116324;27;19915;-86
2021/07/14 04:59:42;;;;;;;;;;;19.70;99.90;;;;;;5116223;27;19908;-85
2021/07/14 05:02:09;;;;;;;;;;;19.80;99.90;;;;;;5116252;27;19907;-85
2021/07/14 05:04:35;;;;;;;;;;;19.80;99.90;;;;;;5098615;27;20337;-83
2021/07/14 05:07:01;;;;;;;;;;;19.70;99.90;;;;;;5116192;27;19915;-84
2021/07/14 05:09:26;;;;;;;;;;;19.70;99.90;;;;;;5115168;27;19914;-85
2021/07/14 05:11:52;;;;;;;;;;;19.70;99.90;;;;;;5133901;27;20344;-85
2021/07/14 05:14:17;;;;;;;;;;;19.80;99.90;;;;;;5116345;27;20232;-85
2021/07/14 05:16:43;;;;;;;;;;;19.80;99.90;;;;;;5134457;27;19907;-83
2021/07/14 05:19:09;;;;;;;;;;;19.80;99.90;;;;;;5134947;27;19911;-84
2021/07/14 05:21:35;;;;;;;;;;;19.80;99.90;;;;;;5135110;27;19911;-84
2021/07/14 05:24:00;;;;;;;;;;;19.80;99.90;;;;;;5117393;27;19918;-84
2021/07/14 05:26:26;;;;;;;;;;;19.80;99.90;;;;;;5116272;27;20393;-85
2021/07/14 05:28:52;;;;;;;;;;;19.80;99.90;;;;;;5116074;27;19931;-85
2021/07/14 05:31:17;;;;;;;;;;;19.80;99.90;;;;;;5133889;27;20384;-83
2021/07/14 05:33:43;;;;;;;;;;;19.80;99.90;;;;;;5134812;27;19908;-84
2021/07/14 05:36:11;;;;;;;;;;;19.80;99.90;;;;;;5134550;27;19918;-84
2021/07/14 05:38:38;;;;;;;;;;;19.80;99.90;;;;;;5115678;27;19908;-84
2021/07/14 05:41:03;;;;;;;;;;;19.70;99.90;;;;;;5134118;27;20371;-84
2021/07/14 05:43:29;;;;;;;;;;;19.80;99.90;;;;;;5115823;27;19943;-84
2021/07/14 05:45:54;;;;;;;;;;;19.80;99.90;;;;;;5115953;27;19911;-84
2021/07/14 05:48:21;;;;;;;;;;;19.80;99.90;;;;;;5115675;27;19912;-84
2021/07/14 05:50:46;;;;;;;;;;;19.80;99.90;;;;;;5115372;27;19920;-84
2021/07/14 05:53:12;;;;;;;;;;;19.80;99.90;;;;;;5115577;27;19907;-84
2021/07/14 05:55:38;;;;;;;;;;;19.80;99.90;;;;;;5134430;27;19911;-84
2021/07/14 05:58:03;;;;;;;;;;;19.80;99.90;;;;;;5115806;27;19914;-85
2021/07/14 06:00:29;;;;;;;;;;;19.80;99.90;;;;;;5114777;27;19918;-84
2021/07/14 06:02:55;;;;;;;;;;;19.80;99.90;;;;;;5115361;27;20286;-83
2021/07/14 06:05:21;;;;;;;;;;;19.80;99.90;;;;;;5133706;27;19976;-84
2021/07/14 06:07:46;;;;;;;;;;;19.80;99.90;;;;;;5114809;27;19908;-84
2021/07/14 06:10:12;;;;;;;;;;;19.80;99.90;;;;;;5133393;27;19907;-83
2021/07/14 06:12:38;;;;;;;;;;;19.80;99.90;;;;;;5114639;27;19911;-84
2021/07/14 06:15:04;;;;;;;;;;;19.80;99.90;;;;;;5114673;27;19915;-83
2021/07/14 06:17:30;;;;;;;;;;;19.80;99.90;;;;;;5133213;27;19960;-85
2021/07/14 06:19:55;;;;;;;;;;;19.80;99.90;;;;;;5115074;27;19908;-86
2021/07/14 06:22:21;;;;;;;;;;;19.70;99.90;;;;;;5114699;27;19959;-84
2021/07/14 06:24:46;;;;;;;;;;;19.80;99.90;;;;;;5115398;27;20348;-84
2021/07/14 06:27:12;;;;;;;;;;;19.80;99.90;;;;;;5115053;27;19908;-83
2021/07/14 06:29:38;;;;;;;;;;;19.80;99.90;;;;;;5132761;27;20405;-83
2021/07/14 06:32:04;;;;;;;;;;;19.80;99.90;;;;;;5114611;27;19907;-88
2021/07/14 06:34:29;;;;;;;;;;;19.80;99.90;;;;;;5115141;27;19911;-86
2021/07/14 06:36:55;;;;;;;;;;;19.80;99.90;;;;;;5114402;27;19981;-87
2021/07/14 06:39:20;;;;;;;;;;;19.80;99.90;;;;;;5114815;27;19911;-86
2021/07/14 06:41:46;;;;;;;;;;;19.80;99.90;;;;;;5133145;27;19943;-85
2021/07/14 06:44:11;;;;;;;;;;;19.80;99.90;;;;;;5132944;27;19907;-87
2021/07/14 06:46:37;;;;;;;;;;;19.80;99.90;;;;;;5114254;27;20305;-85
2021/07/14 06:49:03;;;;;;;;;;;19.80;99.90;;;;;;5113935;27;19908;-86
2021/07/14 06:51:28;;;;;;;;;;;19.80;99.90;;;;;;5114027;27;19908;-85
2021/07/14 06:53:54;;;;;;;;;;;19.70;99.90;;;;;;5113943;28;19960;-85
2021/07/14 06:56:19;;;;;;;;;;;19.80;99.90;;;;;;5132392;27;19911;-87
2021/07/14 06:58:45;;;;;;;;;;;19.80;99.90;;;;;;5114135;27;20224;-85
2021/07/14 07:01:11;;;;;;;;;;;19.80;99.90;;;;;;5113365;28;19911;-85
2021/07/14 07:03:37;;;;;;;;;;;19.80;99.90;;;;;;5132330;27;19914;-85
2021/07/14 07:06:03;;;;;;;;;;;19.80;99.90;;;;;;5114003;28;20252;-85
2021/07/14 07:08:28;;;;;;;;;;;19.80;99.90;;;;;;5113623;27;19968;-85
2021/07/14 07:10:54;;;;;;;;;;;19.80;99.90;;;;;;5113501;28;19911;-87
2021/07/14 07:13:19;;;;;;;;;;;19.80;99.90;;;;;;5113868;28;19934;-85
2021/07/14 07:15:46;;;;;;;;;;;19.80;99.90;;;;;;5132697;28;20030;-84
2021/07/14 07:18:11;;;;;;;;;;;19.80;99.90;;;;;;5113738;28;19994;-84
2021/07/14 07:20:37;;;;;;;;;;;19.80;99.90;;;;;;5113320;28;20393;-85
2021/07/14 07:23:03;;;;;;;;;;;19.80;99.90;;;;;;5113322;28;20386;-85
2021/07/14 07:25:28;;;;;;;;;;;19.80;99.90;;;;;;5113842;28;20383;-85
2021/07/14 07:27:56;;;;;;;;;;;19.80;99.90;;;;;;5118017;27;19907;-85
2021/07/14 07:30:22;;;;;;;;;;;19.80;99.90;;;;;;5117343;27;19908;-85
2021/07/14 07:32:47;;;;;;;;;;;19.80;99.90;;;;;;5117742;27;20056;-84
2021/07/14 07:35:13;;;;;;;;;;;19.70;99.90;;;;;;5136318;27;19934;-85
2021/07/14 07:37:38;;;;;;;;;;;19.70;99.90;;;;;;5119066;27;19908;-84
2021/07/14 07:40:05;;;;;;;;;;;19.70;99.90;;;;;;5115807;27;19907;-84
2021/07/14 07:42:31;;;;;;;;;;;19.70;99.90;;;;;;5117370;27;19908;-85
2021/07/14 07:44:57;;;;;;;;;;;19.70;99.90;;;;;;5117628;27;20050;-85
2021/07/14 07:47:22;;;;;;;;;;;19.70;99.90;;;;;;5135879;27;19998;-85
2021/07/14 07:49:48;;;;;;;;;;;19.70;99.90;;;;;;5116966;27;19968;-85
2021/07/14 07:52:14;;;;;;;;;;;19.70;99.90;;;;;;5136040;27;19919;-84
2021/07/14 07:54:40;;;;;;;;;;;19.70;99.90;;;;;;5117662;27;19918;-85
2021/07/14 07:57:06;;;;;;;;;;;19.70;99.90;;;;;;5117347;27;19911;-83
2021/07/14 07:59:32;;;;;;;;;;;19.70;99.90;;;;;;5132024;27;19908;-85
2021/07/14 08:01:57;;;;;;;;;;;19.60;99.90;;;;;;5114812;28;19933;-85
2021/07/14 08:04:23;;;;;;;;;;;19.60;99.90;;;;;;5096710;28;19924;-85
2021/07/14 08:06:48;;;;;;;;;;;19.70;99.90;;;;;;5095945;28;20007;-85
2021/07/14 08:09:14;;;;;;;;;;;19.70;99.90;;;;;;5096111;28;19908;-85
2021/07/14 08:11:40;;;;;;;;;;;19.70;99.90;;;;;;5096967;28;19912;-84
2021/07/14 08:14:05;;;;;;;;;;;19.60;99.90;;;;;;5096454;28;19915;-84
2021/07/14 08:16:31;;;;;;;;;;;19.50;99.90;;;;;;5114789;28;20377;-84
2021/07/14 08:18:57;;;;;;;;;;;19.50;99.90;;;;;;5094753;28;19947;-84
2021/07/14 08:21:23;;;;;;;;;;;19.50;99.90;;;;;;5098911;27;20366;-85
2021/07/14 08:23:49;;;;;;;;;;;19.50;99.90;;;;;;5116618;27;20227;-85
2021/07/14 08:26:15;;;;;;;;;;;19.50;99.90;;;;;;5151004;27;19964;-85
2021/07/14 08:28:41;;;;;;;;;;;19.50;99.90;;;;;;5150719;27;20050;-85
2021/07/14 08:31:06;;;;;;;;;;;19.50;99.90;;;;;;5134508;27;19934;-85
2021/07/14 08:33:32;;;;;;;;;;;19.50;99.90;;;;;;5133284;27;19927;-84
2021/07/14 08:35:58;;;;;;;;;;;19.50;99.90;;;;;;5133117;27;20027;-84
2021/07/14 08:38:23;;;;;;;;;;;19.50;99.90;;;;;;5113778;27;19912;-84
2021/07/14 08:40:52;;;;;;;;;;;19.50;99.90;;;;;;5132399;27;19914;-85
2021/07/14 08:43:19;;;;;;;;;;;19.50;99.90;;;;;;5114347;27;19915;-84
2021/07/14 08:45:45;;;;;;;;;;;19.50;99.90;;;;;;5109152;28;20339;-85
2021/07/14 08:48:13;;;;;;;;;;;19.50;99.90;;;;;;5094281;28;19912;-85
2021/07/14 08:50:43;;;;;;;;;;;19.50;99.90;;;;;;5095257;28;19908;-85
2021/07/14 08:53:13;;;;;;;;;;;19.50;99.90;;;;;;5095664;28;20000;-86
2021/07/14 08:55:39;;;;;;;;;;;19.50;99.90;;;;;;5114085;28;19918;-85
2021/07/14 08:58:05;;;;;;;;;;;19.50;99.90;;;;;;5108485;27;19908;-85
2021/07/14 09:00:31;;;;;;;;;;;19.50;99.90;;;;;;5115311;27;19969;-85
2021/07/14 09:02:57;;;;;;;;;;;19.50;99.90;;;;;;5134157;27;19912;-84
2021/07/14 09:05:22;;;;;;;;;;;19.60;99.90;;;;;;5149970;27;19917;-84
2021/07/14 09:07:48;;;;;;;;;;;19.60;99.90;;;;;;5150003;27;20275;-85
2021/07/14 09:10:14;;;;;;;;;;;19.60;99.90;;;;;;5115145;27;19908;-85
2021/07/14 09:12:45;;;;;;;;;;;19.60;99.90;;;;;;5115433;27;19907;-84
2021/07/14 09:15:12;;;;;;;;;;;19.60;99.90;;;;;;5107792;28;20018;-84
2021/07/14 09:17:42;;;;;;;;;;;19.60;99.90;;;;;;5120920;27;20358;-85
2021/07/14 09:20:11;;;;;;;;;;;19.60;99.90;;;;;;5114458;27;20023;-85
2021/07/14 09:22:36;;;;;;;;;;;19.60;99.90;;;;;;5133612;27;19914;-84
2021/07/14 09:25:13;;;;;;;;;;;19.60;99.90;;;;;;5131574;27;19907;-85
2021/07/14 09:27:51;;;;;;;;;;;19.60;99.90;;;;;;5112948;28;19907;-84
2021/07/14 09:30:16;;;;;;;;;;;19.60;99.90;;;;;;5093538;28;20385;-85
2021/07/14 09:32:59;;;;;;;;;;;19.50;99.90;;;;;;5093950;28;19958;-84
2021/07/14 09:35:25;;;;;;;;;;;19.50;99.90;;;;;;5094199;28;20340;-84
2021/07/14 09:37:51;;;;;;;;;;;19.50;99.90;;;;;;5094052;28;19955;-84
2021/07/14 09:40:17;;;;;;;;;;;19.50;99.90;;;;;;5093606;28;20015;-84
2021/07/14 09:42:51;;;;;;;;;;;19.50;99.90;;;;;;5094160;28;19908;-84
2021/07/14 09:45:16;;;;;;;;;;;19.40;99.90;;;;;;5094328;28;20335;-84
2021/07/14 09:47:42;;;;;;;;;;;19.40;99.90;;;;;;5112586;28;19950;-84
2021/07/14 09:50:08;;;;;;;;;;;19.40;99.90;;;;;;5092683;28;19926;-84
2021/07/14 09:52:33;;;;;;;;;;;19.40;99.90;;;;;;5094129;28;19981;-85
2021/07/14 09:55:06;;;;;;;;;;;19.40;99.90;;;;;;5094059;28;19957;-85
2021/07/14 09:57:31;;;;;;;;;;;19.40;99.90;;;;;;5093994;28;19911;-84
2021/07/14 09:59:57;;;;;;;;;;;19.40;99.90;;;;;;5111655;28;19961;-85
2021/07/14 10:02:22;;;;;;;;;;;19.40;99.90;;;;;;5112200;28;19912;-84
2021/07/14 10:04:49;;;;;;;;;;;19.40;99.90;;;;;;5112304;28;19916;-85
2021/07/14 10:07:18;;;;;;;;;;;19.40;99.90;;;;;;5112189;28;20016;-84
2021/07/14 10:09:44;;;;;;;;;;;19.40;99.90;;;;;;5093624;28;19907;-83
2021/07/14 10:12:29;;;;;;;;;;;19.40;99.90;;;;;;5094023;28;19908;-85
2021/07/14 10:14:56;;;;;;;;;;;19.40;99.90;;;;;;5093965;28;19922;-85
2021/07/14 10:17:40;;;;;;;;;;;19.40;99.90;;;;;;5094026;28;19908;-85
2021/07/14 10:20:21;;;;;;;;;;;19.40;99.90;;;;;;5093303;28;20322;-82
2021/07/14 10:22:50;;;;;;;;;;;19.40;99.90;;;;;;5112101;28;19908;-82
2021/07/14 10:25:17;;;;;;;;;;;19.40;99.90;;;;;;5112363;28;19922;-82
2021/07/14 10:27:42;;;;;;;;;;;19.40;99.90;;;;;;5093874;28;19907;-82
2021/07/14 10:30:08;;;;;;;;;;;19.40;99.90;;;;;;5094052;28;19961;-82
2021/07/14 10:32:34;;;;;;;;;;;19.50;99.90;;;;;;5094142;28;19920;-84
2021/07/14 10:35:00;;;;;;;;;;;19.40;99.90;;;;;;5112671;28;20340;-84
2021/07/14 10:37:25;;;;;;;;;;;19.50;99.90;;;;;;5092799;28;19908;-84
2021/07/14 10:39:51;;;;;;;;;;;19.50;99.90;;;;;;5111657;28;19918;-83
2021/07/14 10:42:17;;;;;;;;;;;19.50;99.90;;;;;;5093847;28;19994;-85
2021/07/14 10:44:42;;;;;;;;;;;19.50;99.90;;;;;;5094015;28;20324;-85
2021/07/14 10:47:08;;;;;;;;;;;19.50;99.90;;;;;;5093731;28;19908;-85
2021/07/14 10:49:34;;;;;;;;;;;19.50;99.90;;;;;;5093065;28;19919;-85
2021/07/14 10:52:00;;;;;;;;;;;19.50;99.90;;;;;;5127742;27;20320;-85
2021/07/14 10:54:26;;;;;;;;;;;19.50;99.90;;;;;;5131061;27;19959;-85
2021/07/14 10:56:51;;;;;;;;;;;19.50;99.90;;;;;;5113774;27;20416;-85
2021/07/14 10:59:20;;;;;;;;;;;19.50;99.90;;;;;;5113360;27;19913;-85
2021/07/14 11:01:48;;;;;;;;;;;19.50;99.90;;;;;;5113245;28;20002;-85
2021/07/14 11:04:26;;;;;;;;;;;19.50;99.90;;;;;;5113730;28;19922;-85
2021/07/14 11:06:52;;;;;;;;;;;19.50;99.90;;;;;;5113845;28;19940;-85
2021/07/14 11:09:33;;;;;;;;;;;19.40;99.90;;;;;;5113565;28;19908;-85
2021/07/14 11:11:59;;;;;;;;;;;19.50;99.90;;;;;;5113780;28;19955;-85
2021/07/14 11:14:41;;;;;;;;;;;19.50;99.90;;;;;;5114137;28;19907;-86
2021/07/14 11:17:07;;;;;;;;;;;19.50;99.90;;;;;;5114072;28;19907;-84
2021/07/14 11:19:45;;;;;;;;;;;19.50;99.90;;;;;;5113364;28;19914;-85
2021/07/14 11:22:11;;;;;;;;;;;19.50;99.90;;;;;;5113684;28;19918;-85
2021/07/14 11:24:41;;;;;;;;;;;19.50;99.90;;;;;;5132552;28;19907;-87
2021/07/14 11:27:19;;;;;;;;;;;19.50;99.90;;;;;;5113823;28;20363;-87
2021/07/14 11:29:45;;;;;;;;;;;19.50;99.90;;;;;;5113594;28;19943;-85
2021/07/14 11:32:10;;;;;;;;;;;19.50;99.90;;;;;;5114023;28;20008;-86
2021/07/14 11:34:37;;;;;;;;;;;19.50;99.90;;;;;;5131331;28;20362;-86
2021/07/14 11:37:29;;;;;;;;;;;19.50;99.90;;;;;;5132396;28;19990;-86
2021/07/14 11:39:55;;;;;;;;;;;19.60;99.90;;;;;;5132074;28;19926;-86
2021/07/14 11:42:20;;;;;;;;;;;19.60;99.90;;;;;;5134122;28;19998;-86
2021/07/14 11:44:52;;;;;;;;;;;19.60;99.90;;;;;;5116103;28;19973;-86
2021/07/14 11:47:30;;;;;;;;;;;19.50;99.90;;;;;;5116403;28;19946;-86
2021/07/14 11:49:56;;;;;;;;;;;19.60;99.90;;;;;;5115825;28;19998;-86
2021/07/14 11:52:41;;;;;;;;;;;19.60;99.90;;;;;;5134509;28;19959;-86
2021/07/14 11:55:24;;;;;;;;;;;19.60;99.90;;;;;;5115103;28;20274;-86
2021/07/14 11:57:50;;;;;;;;;;;19.60;99.90;;;;;;5113807;28;20015;-85
2021/07/14 12:00:16;;;;;;;;;;;19.60;99.90;;;;;;5131587;28;19922;-86
2021/07/14 12:02:58;;;;;;;;;;;19.60;99.90;;;;;;5132422;28;19908;-86
2021/07/14 12:05:28;;;;;;;;;;;19.60;99.90;;;;;;5113790;28;20405;-86
2021/07/14 12:08:06;;;;;;;;;;;19.70;99.90;;;;;;5114085;28;20020;-86
2021/07/14 12:10:32;;;;;;;;;;;19.60;99.90;;;;;;5113174;28;19907;-86
2021/07/14 12:12:58;;;;;;;;;;;19.70;99.90;;;;;;5133941;27;19998;-86
2021/07/14 12:15:24;;;;;;;;;;;19.70;99.90;;;;;;5117471;27;19964;-85
2021/07/14 12:17:49;;;;;;;;;;;19.70;99.90;;;;;;5136124;27;19908;-85
2021/07/14 12:20:15;;;;;;;;;;;19.70;99.90;;;;;;5133788;27;19914;-86
2021/07/14 12:22:41;;;;;;;;;;;19.70;99.90;;;;;;5133520;27;19907;-85
2021/07/14 12:25:13;;;;;;;;;;;19.70;99.90;;;;;;5135236;27;19908;-86
2021/07/14 12:27:41;;;;;;;;;;;19.80;99.90;;;;;;5117081;27;19933;-85
2021/07/14 12:30:11;;;;;;;;;;;19.80;99.90;;;;;;5116398;27;20556;-86
2021/07/14 12:32:40;;;;;;;;;;;19.90;99.90;;;;;;5116592;27;20379;-85
2021/07/14 12:35:09;;;;;;;;;;;19.80;99.90;;;;;;5116560;27;20317;-86
2021/07/14 12:37:39;;;;;;;;;;;19.80;99.90;;;;;;5116585;27;19956;-86
2021/07/14 12:40:05;;;;;;;;;;;19.80;99.90;;;;;;5110805;27;19914;-85
2021/07/14 12:42:30;;;;;;;;;;;19.80;99.90;;;;;;5116432;27;19911;-86
2021/07/14 12:44:56;;;;;;;;;;;20.00;99.90;;;;;;5150687;27;19919;-86
2021/07/14 12:47:22;;;;;;;;;;;20.00;99.90;;;;;;5134667;27;19929;-86
2021/07/14 12:49:49;;;;;;;;;;;20.00;99.90;;;;;;5133760;27;19991;-85
2021/07/14 12:52:16;;;;;;;;;;;20.10;99.90;;;;;;5115881;27;19908;-85
2021/07/14 12:54:42;;;;;;;;;;;20.10;99.90;;;;;;5134478;27;19911;-85
2021/07/14 12:57:27;;;;;;;;;;;20.10;99.90;;;;;;5134343;27;20003;-85
2021/07/14 12:59:56;;;;;;;;;;;20.10;99.90;;;;;;5115183;27;19907;-85
2021/07/14 13:02:22;;;;;;;;;;;20.10;99.90;;;;;;5115642;27;19908;-85
2021/07/14 13:04:49;;;;;;;;;;;20.00;99.90;;;;;;5115818;27;19934;-85
2021/07/14 13:07:19;;;;;;;;;;;20.00;99.90;;;;;;5115449;27;19916;-85
2021/07/14 13:09:44;;;;;;;;;;;20.00;99.90;;;;;;5114969;27;19911;-85
2021/07/14 13:12:10;;;;;;;;;;;20.00;99.90;;;;;;5149959;27;19919;-86
2021/07/14 13:14:35;;;;;;;;;;;20.00;99.90;;;;;;5114056;27;19983;-85
2021/07/14 13:17:01;;;;;;;;;;;20.10;99.90;;;;;;5148048;27;19919;-86
2021/07/14 13:19:31;;;;;;;;;;;20.10;99.90;;;;;;5131650;27;19907;-86
2021/07/14 13:22:00;;;;;;;;;;;20.10;99.90;;;;;;5113234;27;19911;-85
2021/07/14 13:24:29;;;;;;;;;;;20.10;99.90;;;;;;5113746;27;19914;-85
2021/07/14 13:26:56;;;;;;;;;;;20.10;99.90;;;;;;5113304;27;19911;-86
2021/07/14 13:29:28;;;;;;;;;;;20.10;99.90;;;;;;5113085;27;19956;-85
2021/07/14 13:32:10;;;;;;;;;;;20.10;99.90;;;;;;5114634;27;19907;-85
2021/07/14 13:34:40;;;;;;;;;;;20.10;99.90;;;;;;5114882;27;20321;-85
2021/07/14 13:37:06;;;;;;;;;;;20.20;99.90;;;;;;5115192;27;20325;-85
2021/07/14 13:39:33;;;;;;;;;;;20.20;99.90;;;;;;5148682;27;20010;-85
2021/07/14 13:41:59;;;;;;;;;;;20.20;99.90;;;;;;5114739;27;19907;-84
2021/07/14 13:44:26;;;;;;;;;;;20.20;99.90;;;;;;5133767;27;19957;-86
2021/07/14 13:46:53;;;;;;;;;;;20.20;99.90;;;;;;5106554;28;19908;-84
2021/07/14 13:49:21;;;;;;;;;;;20.20;99.90;;;;;;5107177;27;19907;-84
2021/07/14 13:51:47;;;;;;;;;;;20.20;99.90;;;;;;5114193;27;19908;-85
2021/07/14 13:54:24;;;;;;;;;;;20.10;99.90;;;;;;5133102;27;19933;-85
2021/07/14 13:56:59;;;;;;;;;;;20.20;99.90;;;;;;5133097;27;19911;-84
2021/07/14 13:59:25;;;;;;;;;;;20.20;99.90;;;;;;5093460;28;19914;-84
2021/07/14 14:02:04;;;;;;;;;;;20.20;99.90;;;;;;5093784;28;20014;-83
2021/07/14 14:04:30;;;;;;;;;;;20.20;99.90;;;;;;5093989;28;20313;-83
2021/07/14 14:06:58;;;;;;;;;;;20.20;99.90;;;;;;5093604;28;19919;-84
2021/07/14 14:09:24;;;;;;;;;;;20.30;99.90;;;;;;5110267;28;19908;-82
2021/07/14 14:11:50;;;;;;;;;;;20.30;99.90;;;;;;5093586;28;19907;-84
2021/07/14 14:14:16;;;;;;;;;;;20.30;99.90;;;;;;5112029;28;19912;-84
2021/07/14 14:16:42;;;;;;;;;;;20.30;99.90;;;;;;5111917;28;19908;-84
2021/07/14 14:19:11;;;;;;;;;;;20.30;99.90;;;;;;5092945;28;19918;-84
2021/07/14 14:21:37;;;;;;;;;;;20.40;99.90;;;;;;5110725;28;20004;-84
2021/07/14 14:24:07;;;;;;;;;;;20.30;99.90;;;;;;5093505;28;19931;-84
2021/07/14 14:26:32;;;;;;;;;;;20.30;99.90;;;;;;5093665;28;19908;-84